sensor_id;sensor_type;location;lat;lon;timestamp;P1;durP1;ratioP1;P2;durP2;ratioP2
60018;SDS011;45870;42.528;26.740;2023-04-06T00:00:58;18.63;;;13.73;;
60018;SDS011;45870;42.528;26.740;2023-04-06T00:03:24;19.00;;;13.43;;
60018;SDS011;45870;42.528;26.740;2023-04-06T00:05:52;18.90;;;13.13;;
60018;SDS011;45870;42.528;26.740;2023-04-06T00:08:18;16.52;;;12.70;;
60018;SDS011;45870;42.528;26.740;2023-04-06T00:10:44;15.55;;;11.82;;
60018;SDS011;45870;42.528;26.740;2023-04-06T00:13:09;16.42;;;11.43;;
60018;SDS011;45870;42.528;26.740;2023-04-06T00:15:35;14.80;;;11.73;;
60018;SDS011;45870;42.528;26.740;2023-04-06T00:18:01;14.02;;;11.13;;
60018;SDS011;45870;42.528;26.740;2023-04-06T00:20:27;18.30;;;11.50;;
60018;SDS011;45870;42.528;26.740;2023-04-06T00:22:53;14.15;;;11.10;;
60018;SDS011;45870;42.528;26.740;2023-04-06T00:25:19;15.35;;;11.70;;
60018;SDS011;45870;42.528;26.740;2023-04-06T00:27:45;16.15;;;12.05;;
60018;SDS011;45870;42.528;26.740;2023-04-06T00:30:11;18.52;;;11.88;;
60018;SDS011;45870;42.528;26.740;2023-04-06T00:32:36;17.27;;;11.95;;
60018;SDS011;45870;42.528;26.740;2023-04-06T00:35:03;14.95;;;11.23;;
60018;SDS011;45870;42.528;26.740;2023-04-06T00:37:29;17.50;;;12.40;;
60018;SDS011;45870;42.528;26.740;2023-04-06T00:39:55;16.52;;;12.20;;
60018;SDS011;45870;42.528;26.740;2023-04-06T00:42:21;16.90;;;12.27;;
60018;SDS011;45870;42.528;26.740;2023-04-06T00:44:55;17.85;;;12.95;;
60018;SDS011;45870;42.528;26.740;2023-04-06T00:47:22;20.13;;;13.95;;
60018;SDS011;45870;42.528;26.740;2023-04-06T00:49:50;21.35;;;15.13;;
60018;SDS011;45870;42.528;26.740;2023-04-06T00:52:19;23.33;;;16.45;;
60018;SDS011;45870;42.528;26.740;2023-04-06T00:54:46;24.05;;;16.05;;
60018;SDS011;45870;42.528;26.740;2023-04-06T00:57:12;25.73;;;17.48;;
60018;SDS011;45870;42.528;26.740;2023-04-06T00:59:38;29.52;;;19.10;;
60018;SDS011;45870;42.528;26.740;2023-04-06T01:02:05;27.58;;;18.48;;
60018;SDS011;45870;42.528;26.740;2023-04-06T01:04:32;27.40;;;18.50;;
60018;SDS011;45870;42.528;26.740;2023-04-06T01:06:58;27.05;;;18.23;;
60018;SDS011;45870;42.528;26.740;2023-04-06T01:09:24;27.38;;;19.38;;
60018;SDS011;45870;42.528;26.740;2023-04-06T01:11:49;28.48;;;19.20;;
60018;SDS011;45870;42.528;26.740;2023-04-06T01:14:15;28.23;;;19.58;;
60018;SDS011;45870;42.528;26.740;2023-04-06T01:16:41;28.13;;;19.77;;
60018;SDS011;45870;42.528;26.740;2023-04-06T01:19:08;30.05;;;20.33;;
60018;SDS011;45870;42.528;26.740;2023-04-06T01:21:36;29.42;;;19.52;;
60018;SDS011;45870;42.528;26.740;2023-04-06T01:24:02;34.85;;;19.63;;
60018;SDS011;45870;42.528;26.740;2023-04-06T01:26:28;26.50;;;17.55;;
60018;SDS011;45870;42.528;26.740;2023-04-06T01:28:54;31.05;;;20.45;;
60018;SDS011;45870;42.528;26.740;2023-04-06T01:31:20;27.52;;;19.15;;
60018;SDS011;45870;42.528;26.740;2023-04-06T01:33:47;27.92;;;19.17;;
60018;SDS011;45870;42.528;26.740;2023-04-06T01:36:13;30.05;;;20.05;;
60018;SDS011;45870;42.528;26.740;2023-04-06T01:38:39;28.75;;;19.27;;
60018;SDS011;45870;42.528;26.740;2023-04-06T01:41:06;26.65;;;18.30;;
60018;SDS011;45870;42.528;26.740;2023-04-06T01:43:33;27.42;;;18.67;;
60018;SDS011;45870;42.528;26.740;2023-04-06T01:45:59;29.65;;;18.65;;
60018;SDS011;45870;42.528;26.740;2023-04-06T01:48:26;25.52;;;17.85;;
60018;SDS011;45870;42.528;26.740;2023-04-06T01:50:52;29.33;;;18.00;;
60018;SDS011;45870;42.528;26.740;2023-04-06T01:53:18;28.20;;;18.10;;
60018;SDS011;45870;42.528;26.740;2023-04-06T01:55:44;25.20;;;17.73;;
60018;SDS011;45870;42.528;26.740;2023-04-06T01:58:10;27.95;;;18.23;;
60018;SDS011;45870;42.528;26.740;2023-04-06T02:00:36;26.50;;;19.33;;
60018;SDS011;45870;42.528;26.740;2023-04-06T02:03:02;27.85;;;18.70;;
60018;SDS011;45870;42.528;26.740;2023-04-06T02:05:28;26.92;;;18.63;;
60018;SDS011;45870;42.528;26.740;2023-04-06T02:07:55;26.38;;;18.60;;
60018;SDS011;45870;42.528;26.740;2023-04-06T02:10:21;23.60;;;17.25;;
60018;SDS011;45870;42.528;26.740;2023-04-06T02:12:48;25.67;;;17.73;;
60018;SDS011;45870;42.528;26.740;2023-04-06T02:15:14;24.65;;;18.15;;
60018;SDS011;45870;42.528;26.740;2023-04-06T02:17:40;27.60;;;18.23;;
60018;SDS011;45870;42.528;26.740;2023-04-06T02:20:07;24.90;;;17.27;;
60018;SDS011;45870;42.528;26.740;2023-04-06T02:22:34;24.50;;;16.13;;
60018;SDS011;45870;42.528;26.740;2023-04-06T02:25:00;23.90;;;16.63;;
60018;SDS011;45870;42.528;26.740;2023-04-06T02:27:26;22.48;;;16.67;;
60018;SDS011;45870;42.528;26.740;2023-04-06T02:29:52;23.90;;;16.55;;
60018;SDS011;45870;42.528;26.740;2023-04-06T02:32:18;20.95;;;15.30;;
60018;SDS011;45870;42.528;26.740;2023-04-06T02:34:44;21.73;;;16.50;;
60018;SDS011;45870;42.528;26.740;2023-04-06T02:37:10;24.98;;;17.17;;
60018;SDS011;45870;42.528;26.740;2023-04-06T02:39:35;23.45;;;16.45;;
60018;SDS011;45870;42.528;26.740;2023-04-06T02:42:01;25.55;;;17.95;;
60018;SDS011;45870;42.528;26.740;2023-04-06T02:44:27;25.52;;;17.98;;
60018;SDS011;45870;42.528;26.740;2023-04-06T02:46:52;27.33;;;18.38;;
60018;SDS011;45870;42.528;26.740;2023-04-06T02:49:18;23.77;;;16.92;;
60018;SDS011;45870;42.528;26.740;2023-04-06T02:51:44;24.73;;;17.55;;
60018;SDS011;45870;42.528;26.740;2023-04-06T02:54:09;22.55;;;15.57;;
60018;SDS011;45870;42.528;26.740;2023-04-06T02:56:35;23.13;;;16.30;;
60018;SDS011;45870;42.528;26.740;2023-04-06T02:59:01;23.35;;;16.35;;
60018;SDS011;45870;42.528;26.740;2023-04-06T03:01:26;22.60;;;15.50;;
60018;SDS011;45870;42.528;26.740;2023-04-06T03:03:52;25.52;;;15.35;;
60018;SDS011;45870;42.528;26.740;2023-04-06T03:06:18;22.75;;;14.35;;
60018;SDS011;45870;42.528;26.740;2023-04-06T03:08:43;19.55;;;14.00;;
60018;SDS011;45870;42.528;26.740;2023-04-06T03:11:09;22.77;;;15.43;;
60018;SDS011;45870;42.528;26.740;2023-04-06T03:13:36;23.20;;;14.48;;
60018;SDS011;45870;42.528;26.740;2023-04-06T03:16:04;20.90;;;15.20;;
60018;SDS011;45870;42.528;26.740;2023-04-06T03:18:30;21.50;;;15.35;;
60018;SDS011;45870;42.528;26.740;2023-04-06T03:20:56;21.55;;;15.07;;
60018;SDS011;45870;42.528;26.740;2023-04-06T03:23:22;25.40;;;16.55;;
60018;SDS011;45870;42.528;26.740;2023-04-06T03:25:48;23.73;;;17.48;;
60018;SDS011;45870;42.528;26.740;2023-04-06T03:28:14;29.67;;;18.92;;
60018;SDS011;45870;42.528;26.740;2023-04-06T03:30:41;31.33;;;21.10;;
60018;SDS011;45870;42.528;26.740;2023-04-06T03:33:07;33.95;;;21.45;;
60018;SDS011;45870;42.528;26.740;2023-04-06T03:35:32;35.67;;;22.30;;
60018;SDS011;45870;42.528;26.740;2023-04-06T03:37:58;37.15;;;23.55;;
60018;SDS011;45870;42.528;26.740;2023-04-06T03:40:24;37.40;;;23.92;;
60018;SDS011;45870;42.528;26.740;2023-04-06T03:42:50;35.08;;;23.35;;
60018;SDS011;45870;42.528;26.740;2023-04-06T03:45:16;34.42;;;22.08;;
60018;SDS011;45870;42.528;26.740;2023-04-06T03:47:41;30.85;;;20.05;;
60018;SDS011;45870;42.528;26.740;2023-04-06T03:50:07;31.67;;;20.10;;
60018;SDS011;45870;42.528;26.740;2023-04-06T03:52:34;30.85;;;19.20;;
60018;SDS011;45870;42.528;26.740;2023-04-06T03:55:01;28.50;;;19.10;;
60018;SDS011;45870;42.528;26.740;2023-04-06T03:57:26;26.92;;;18.23;;
60018;SDS011;45870;42.528;26.740;2023-04-06T03:59:52;25.92;;;17.52;;
60018;SDS011;45870;42.528;26.740;2023-04-06T04:02:18;28.23;;;18.33;;
60018;SDS011;45870;42.528;26.740;2023-04-06T04:04:43;26.95;;;17.95;;
60018;SDS011;45870;42.528;26.740;2023-04-06T04:07:09;27.15;;;17.50;;
60018;SDS011;45870;42.528;26.740;2023-04-06T04:09:36;28.75;;;17.42;;
60018;SDS011;45870;42.528;26.740;2023-04-06T04:12:02;29.23;;;17.42;;
60018;SDS011;45870;42.528;26.740;2023-04-06T04:14:27;26.65;;;17.77;;
60018;SDS011;45870;42.528;26.740;2023-04-06T04:16:53;30.38;;;18.70;;
60018;SDS011;45870;42.528;26.740;2023-04-06T04:19:19;28.33;;;18.52;;
60018;SDS011;45870;42.528;26.740;2023-04-06T04:21:45;28.48;;;18.63;;
60018;SDS011;45870;42.528;26.740;2023-04-06T04:24:12;28.08;;;18.67;;
60018;SDS011;45870;42.528;26.740;2023-04-06T04:26:38;29.25;;;17.50;;
60018;SDS011;45870;42.528;26.740;2023-04-06T04:29:04;27.33;;;17.83;;
60018;SDS011;45870;42.528;26.740;2023-04-06T04:31:30;26.02;;;17.90;;
60018;SDS011;45870;42.528;26.740;2023-04-06T04:33:57;27.77;;;19.02;;
60018;SDS011;45870;42.528;26.740;2023-04-06T04:36:23;28.17;;;18.42;;
60018;SDS011;45870;42.528;26.740;2023-04-06T04:38:51;29.45;;;19.88;;
60018;SDS011;45870;42.528;26.740;2023-04-06T04:41:17;30.50;;;19.80;;
60018;SDS011;45870;42.528;26.740;2023-04-06T04:43:43;29.52;;;19.20;;
60018;SDS011;45870;42.528;26.740;2023-04-06T04:46:09;29.58;;;18.23;;
60018;SDS011;45870;42.528;26.740;2023-04-06T04:48:37;25.20;;;17.52;;
60018;SDS011;45870;42.528;26.740;2023-04-06T04:51:04;25.90;;;17.92;;
60018;SDS011;45870;42.528;26.740;2023-04-06T04:53:30;25.75;;;17.20;;
60018;SDS011;45870;42.528;26.740;2023-04-06T04:55:55;24.75;;;16.65;;
60018;SDS011;45870;42.528;26.740;2023-04-06T04:58:21;22.85;;;15.40;;
60018;SDS011;45870;42.528;26.740;2023-04-06T05:00:47;23.25;;;16.05;;
60018;SDS011;45870;42.528;26.740;2023-04-06T05:03:15;22.80;;;15.60;;
60018;SDS011;45870;42.528;26.740;2023-04-06T05:05:45;24.05;;;15.52;;
60018;SDS011;45870;42.528;26.740;2023-04-06T05:08:11;22.35;;;14.82;;
60018;SDS011;45870;42.528;26.740;2023-04-06T05:10:37;23.48;;;15.10;;
60018;SDS011;45870;42.528;26.740;2023-04-06T05:13:03;22.05;;;15.43;;
60018;SDS011;45870;42.528;26.740;2023-04-06T05:15:29;17.23;;;12.85;;
60018;SDS011;45870;42.528;26.740;2023-04-06T05:17:55;23.15;;;15.00;;
60018;SDS011;45870;42.528;26.740;2023-04-06T05:20:20;20.80;;;14.23;;
60018;SDS011;45870;42.528;26.740;2023-04-06T05:22:46;20.20;;;14.07;;
60018;SDS011;45870;42.528;26.740;2023-04-06T05:25:12;20.25;;;14.23;;
60018;SDS011;45870;42.528;26.740;2023-04-06T05:27:38;18.58;;;13.18;;
60018;SDS011;45870;42.528;26.740;2023-04-06T05:30:05;16.55;;;12.27;;
60018;SDS011;45870;42.528;26.740;2023-04-06T05:32:31;18.02;;;12.52;;
60018;SDS011;45870;42.528;26.740;2023-04-06T05:34:57;18.77;;;12.65;;
60018;SDS011;45870;42.528;26.740;2023-04-06T05:37:23;16.10;;;11.65;;
60018;SDS011;45870;42.528;26.740;2023-04-06T05:39:49;23.30;;;13.43;;
60018;SDS011;45870;42.528;26.740;2023-04-06T05:42:15;23.27;;;15.15;;
60018;SDS011;45870;42.528;26.740;2023-04-06T05:44:40;21.40;;;14.15;;
60018;SDS011;45870;42.528;26.740;2023-04-06T05:47:06;18.95;;;13.68;;
60018;SDS011;45870;42.528;26.740;2023-04-06T05:49:32;18.15;;;13.40;;
60018;SDS011;45870;42.528;26.740;2023-04-06T05:51:58;19.55;;;12.77;;
60018;SDS011;45870;42.528;26.740;2023-04-06T05:54:23;19.38;;;13.30;;
60018;SDS011;45870;42.528;26.740;2023-04-06T05:56:49;17.67;;;13.07;;
60018;SDS011;45870;42.528;26.740;2023-04-06T05:59:15;18.90;;;13.45;;
60018;SDS011;45870;42.528;26.740;2023-04-06T06:01:41;18.02;;;13.23;;
60018;SDS011;45870;42.528;26.740;2023-04-06T06:04:06;17.25;;;12.50;;
60018;SDS011;45870;42.528;26.740;2023-04-06T06:06:32;18.17;;;12.95;;
60018;SDS011;45870;42.528;26.740;2023-04-06T06:08:58;18.20;;;12.13;;
60018;SDS011;45870;42.528;26.740;2023-04-06T06:11:28;19.60;;;13.10;;
60018;SDS011;45870;42.528;26.740;2023-04-06T06:13:54;15.75;;;12.73;;
60018;SDS011;45870;42.528;26.740;2023-04-06T06:16:21;18.30;;;12.65;;
60018;SDS011;45870;42.528;26.740;2023-04-06T06:18:47;17.08;;;13.10;;
60018;SDS011;45870;42.528;26.740;2023-04-06T06:21:13;17.35;;;12.88;;
60018;SDS011;45870;42.528;26.740;2023-04-06T06:23:38;18.85;;;13.68;;
60018;SDS011;45870;42.528;26.740;2023-04-06T06:26:04;18.50;;;12.88;;
60018;SDS011;45870;42.528;26.740;2023-04-06T06:28:30;17.73;;;13.73;;
60018;SDS011;45870;42.528;26.740;2023-04-06T06:30:56;16.98;;;13.00;;
60018;SDS011;45870;42.528;26.740;2023-04-06T06:33:23;20.00;;;13.02;;
60018;SDS011;45870;42.528;26.740;2023-04-06T06:35:49;17.05;;;13.48;;
60018;SDS011;45870;42.528;26.740;2023-04-06T06:38:16;19.60;;;14.30;;
60018;SDS011;45870;42.528;26.740;2023-04-06T06:40:42;16.15;;;12.40;;
60018;SDS011;45870;42.528;26.740;2023-04-06T06:43:08;17.90;;;10.35;;
60018;SDS011;45870;42.528;26.740;2023-04-06T06:45:34;15.77;;;12.38;;
60018;SDS011;45870;42.528;26.740;2023-04-06T06:48:00;12.15;;;10.38;;
60018;SDS011;45870;42.528;26.740;2023-04-06T06:50:25;14.48;;;10.43;;
60018;SDS011;45870;42.528;26.740;2023-04-06T06:52:52;11.18;;;9.20;;
60018;SDS011;45870;42.528;26.740;2023-04-06T06:55:18;13.13;;;9.73;;
60018;SDS011;45870;42.528;26.740;2023-04-06T06:57:44;14.32;;;9.90;;
60018;SDS011;45870;42.528;26.740;2023-04-06T07:00:11;12.02;;;9.63;;
60018;SDS011;45870;42.528;26.740;2023-04-06T07:02:38;11.68;;;9.68;;
60018;SDS011;45870;42.528;26.740;2023-04-06T07:05:04;11.68;;;9.30;;
60018;SDS011;45870;42.528;26.740;2023-04-06T07:07:32;11.38;;;9.40;;
60018;SDS011;45870;42.528;26.740;2023-04-06T07:09:59;11.20;;;9.02;;
60018;SDS011;45870;42.528;26.740;2023-04-06T07:12:25;14.05;;;11.23;;
60018;SDS011;45870;42.528;26.740;2023-04-06T07:14:50;14.23;;;11.35;;
60018;SDS011;45870;42.528;26.740;2023-04-06T07:17:16;13.32;;;10.60;;
60018;SDS011;45870;42.528;26.740;2023-04-06T07:19:42;12.55;;;10.38;;
60018;SDS011;45870;42.528;26.740;2023-04-06T07:22:10;12.75;;;10.07;;
60018;SDS011;45870;42.528;26.740;2023-04-06T07:24:35;16.25;;;10.88;;
60018;SDS011;45870;42.528;26.740;2023-04-06T07:27:01;11.52;;;9.25;;
60018;SDS011;45870;42.528;26.740;2023-04-06T07:29:27;12.05;;;9.68;;
60018;SDS011;45870;42.528;26.740;2023-04-06T07:31:53;12.95;;;9.88;;
60018;SDS011;45870;42.528;26.740;2023-04-06T07:34:19;14.45;;;10.38;;
60018;SDS011;45870;42.528;26.740;2023-04-06T07:36:45;14.15;;;9.80;;
60018;SDS011;45870;42.528;26.740;2023-04-06T07:39:11;11.80;;;8.48;;
60018;SDS011;45870;42.528;26.740;2023-04-06T07:41:37;12.48;;;8.60;;
60018;SDS011;45870;42.528;26.740;2023-04-06T07:44:03;11.75;;;9.38;;
60018;SDS011;45870;42.528;26.740;2023-04-06T07:46:29;11.40;;;8.20;;
60018;SDS011;45870;42.528;26.740;2023-04-06T07:48:56;10.13;;;8.20;;
60018;SDS011;45870;42.528;26.740;2023-04-06T07:51:22;8.98;;;6.50;;
60018;SDS011;45870;42.528;26.740;2023-04-06T07:53:49;8.00;;;6.13;;
60018;SDS011;45870;42.528;26.740;2023-04-06T07:56:16;7.50;;;5.78;;
60018;SDS011;45870;42.528;26.740;2023-04-06T07:58:42;7.18;;;5.90;;
60018;SDS011;45870;42.528;26.740;2023-04-06T08:01:07;5.07;;;4.55;;
60018;SDS011;45870;42.528;26.740;2023-04-06T08:03:34;6.65;;;4.85;;
60018;SDS011;45870;42.528;26.740;2023-04-06T08:06:00;4.47;;;3.92;;
60018;SDS011;45870;42.528;26.740;2023-04-06T08:08:26;5.57;;;4.93;;
60018;SDS011;45870;42.528;26.740;2023-04-06T08:10:53;6.15;;;4.50;;
60018;SDS011;45870;42.528;26.740;2023-04-06T08:13:18;6.75;;;4.22;;
60018;SDS011;45870;42.528;26.740;2023-04-06T08:15:44;5.93;;;4.10;;
60018;SDS011;45870;42.528;26.740;2023-04-06T08:18:10;8.10;;;4.40;;
60018;SDS011;45870;42.528;26.740;2023-04-06T08:20:36;5.50;;;3.80;;
60018;SDS011;45870;42.528;26.740;2023-04-06T08:23:02;5.32;;;4.28;;
60018;SDS011;45870;42.528;26.740;2023-04-06T08:25:27;5.10;;;4.28;;
60018;SDS011;45870;42.528;26.740;2023-04-06T08:27:53;4.85;;;4.05;;
60018;SDS011;45870;42.528;26.740;2023-04-06T08:30:19;4.80;;;4.20;;
60018;SDS011;45870;42.528;26.740;2023-04-06T08:32:45;5.25;;;4.03;;
60018;SDS011;45870;42.528;26.740;2023-04-06T08:35:11;5.28;;;4.28;;
60018;SDS011;45870;42.528;26.740;2023-04-06T08:37:37;4.88;;;4.15;;
60018;SDS011;45870;42.528;26.740;2023-04-06T08:40:03;5.68;;;4.20;;
60018;SDS011;45870;42.528;26.740;2023-04-06T08:42:31;5.13;;;4.43;;
60018;SDS011;45870;42.528;26.740;2023-04-06T08:44:58;5.03;;;4.53;;
60018;SDS011;45870;42.528;26.740;2023-04-06T08:47:25;4.68;;;4.07;;
60018;SDS011;45870;42.528;26.740;2023-04-06T08:49:52;6.20;;;4.78;;
60018;SDS011;45870;42.528;26.740;2023-04-06T08:52:18;6.15;;;5.15;;
60018;SDS011;45870;42.528;26.740;2023-04-06T08:54:45;5.80;;;5.03;;
60018;SDS011;45870;42.528;26.740;2023-04-06T08:57:11;6.80;;;4.50;;
60018;SDS011;45870;42.528;26.740;2023-04-06T08:59:37;5.72;;;4.90;;
60018;SDS011;45870;42.528;26.740;2023-04-06T09:02:04;6.68;;;5.00;;
60018;SDS011;45870;42.528;26.740;2023-04-06T09:04:33;6.65;;;5.50;;
60018;SDS011;45870;42.528;26.740;2023-04-06T09:07:02;6.13;;;4.63;;
60018;SDS011;45870;42.528;26.740;2023-04-06T09:09:27;6.38;;;4.82;;
60018;SDS011;45870;42.528;26.740;2023-04-06T09:11:53;6.38;;;4.70;;
60018;SDS011;45870;42.528;26.740;2023-04-06T09:14:40;5.20;;;3.90;;
60018;SDS011;45870;42.528;26.740;2023-04-06T09:17:07;5.05;;;3.85;;
60018;SDS011;45870;42.528;26.740;2023-04-06T09:19:32;4.55;;;4.03;;
60018;SDS011;45870;42.528;26.740;2023-04-06T09:22:02;4.43;;;3.95;;
60018;SDS011;45870;42.528;26.740;2023-04-06T09:24:40;5.13;;;4.47;;
60018;SDS011;45870;42.528;26.740;2023-04-06T09:27:08;5.45;;;4.53;;
60018;SDS011;45870;42.528;26.740;2023-04-06T09:29:34;5.88;;;4.50;;
60018;SDS011;45870;42.528;26.740;2023-04-06T09:32:02;5.93;;;5.05;;
60018;SDS011;45870;42.528;26.740;2023-04-06T09:34:29;6.50;;;5.03;;
60018;SDS011;45870;42.528;26.740;2023-04-06T09:36:55;5.18;;;4.68;;
60018;SDS011;45870;42.528;26.740;2023-04-06T09:39:21;5.28;;;4.50;;
60018;SDS011;45870;42.528;26.740;2023-04-06T09:41:51;5.63;;;4.97;;
60018;SDS011;45870;42.528;26.740;2023-04-06T09:44:18;5.80;;;4.60;;
60018;SDS011;45870;42.528;26.740;2023-04-06T09:46:45;6.93;;;5.50;;
60018;SDS011;45870;42.528;26.740;2023-04-06T09:49:12;6.25;;;5.18;;
60018;SDS011;45870;42.528;26.740;2023-04-06T09:51:44;6.60;;;5.45;;
60018;SDS011;45870;42.528;26.740;2023-04-06T09:54:15;8.13;;;6.40;;
60018;SDS011;45870;42.528;26.740;2023-04-06T09:56:47;6.60;;;5.33;;
60018;SDS011;45870;42.528;26.740;2023-04-06T09:59:26;6.95;;;5.43;;
60018;SDS011;45870;42.528;26.740;2023-04-06T10:04:58;7.38;;;5.78;;
60018;SDS011;45870;42.528;26.740;2023-04-06T10:07:31;6.88;;;5.63;;
60018;SDS011;45870;42.528;26.740;2023-04-06T10:09:58;8.60;;;6.20;;
60018;SDS011;45870;42.528;26.740;2023-04-06T10:12:25;8.20;;;5.97;;
60018;SDS011;45870;42.528;26.740;2023-04-06T10:14:51;7.63;;;5.78;;
60018;SDS011;45870;42.528;26.740;2023-04-06T10:17:17;7.68;;;6.07;;
60018;SDS011;45870;42.528;26.740;2023-04-06T10:22:34;8.50;;;6.05;;
60018;SDS011;45870;42.528;26.740;2023-04-06T10:25:05;9.00;;;6.00;;
60018;SDS011;45870;42.528;26.740;2023-04-06T10:27:32;7.80;;;5.88;;
60018;SDS011;45870;42.528;26.740;2023-04-06T10:30:05;7.43;;;6.25;;
60018;SDS011;45870;42.528;26.740;2023-04-06T10:32:37;8.32;;;6.22;;
60018;SDS011;45870;42.528;26.740;2023-04-06T10:35:10;8.50;;;6.53;;
60018;SDS011;45870;42.528;26.740;2023-04-06T10:38:00;7.35;;;6.18;;
60018;SDS011;45870;42.528;26.740;2023-04-06T10:40:28;6.63;;;5.28;;
60018;SDS011;45870;42.528;26.740;2023-04-06T10:43:06;6.57;;;5.70;;
60018;SDS011;45870;42.528;26.740;2023-04-06T10:45:33;6.65;;;5.25;;
60018;SDS011;45870;42.528;26.740;2023-04-06T10:48:01;7.68;;;5.85;;
60018;SDS011;45870;42.528;26.740;2023-04-06T10:50:40;6.80;;;5.88;;
60018;SDS011;45870;42.528;26.740;2023-04-06T10:53:08;7.63;;;5.70;;
60018;SDS011;45870;42.528;26.740;2023-04-06T10:55:34;6.82;;;5.60;;
60018;SDS011;45870;42.528;26.740;2023-04-06T10:58:08;6.28;;;5.18;;
60018;SDS011;45870;42.528;26.740;2023-04-06T11:00:34;6.97;;;5.40;;
60018;SDS011;45870;42.528;26.740;2023-04-06T11:03:00;7.38;;;5.55;;
60018;SDS011;45870;42.528;26.740;2023-04-06T11:05:27;7.28;;;5.75;;
60018;SDS011;45870;42.528;26.740;2023-04-06T11:07:53;6.35;;;5.05;;
60018;SDS011;45870;42.528;26.740;2023-04-06T11:10:22;8.00;;;5.22;;
60018;SDS011;45870;42.528;26.740;2023-04-06T11:12:52;6.28;;;5.00;;
60018;SDS011;45870;42.528;26.740;2023-04-06T11:15:19;6.93;;;5.90;;
60018;SDS011;45870;42.528;26.740;2023-04-06T11:17:45;7.57;;;5.78;;
60018;SDS011;45870;42.528;26.740;2023-04-06T11:20:11;7.05;;;5.68;;
60018;SDS011;45870;42.528;26.740;2023-04-06T11:22:50;8.18;;;5.72;;
60018;SDS011;45870;42.528;26.740;2023-04-06T11:25:16;5.75;;;4.57;;
60018;SDS011;45870;42.528;26.740;2023-04-06T11:27:43;5.85;;;4.70;;
60018;SDS011;45870;42.528;26.740;2023-04-06T11:30:09;6.38;;;4.38;;
60018;SDS011;45870;42.528;26.740;2023-04-06T11:32:41;5.22;;;4.47;;
60018;SDS011;45870;42.528;26.740;2023-04-06T11:35:19;6.45;;;4.50;;
60018;SDS011;45870;42.528;26.740;2023-04-06T11:37:49;5.10;;;4.28;;
60018;SDS011;45870;42.528;26.740;2023-04-06T11:40:15;6.30;;;4.70;;
60018;SDS011;45870;42.528;26.740;2023-04-06T11:42:51;5.88;;;4.65;;
60018;SDS011;45870;42.528;26.740;2023-04-06T11:45:18;5.95;;;4.90;;
60018;SDS011;45870;42.528;26.740;2023-04-06T11:47:43;6.60;;;5.05;;
60018;SDS011;45870;42.528;26.740;2023-04-06T11:50:10;6.28;;;5.18;;
60018;SDS011;45870;42.528;26.740;2023-04-06T11:52:38;5.35;;;4.57;;
60018;SDS011;45870;42.528;26.740;2023-04-06T11:55:14;6.60;;;5.35;;
60018;SDS011;45870;42.528;26.740;2023-04-06T11:57:42;6.63;;;5.38;;
60018;SDS011;45870;42.528;26.740;2023-04-06T12:00:08;6.07;;;4.95;;
60018;SDS011;45870;42.528;26.740;2023-04-06T12:02:38;5.90;;;4.95;;
60018;SDS011;45870;42.528;26.740;2023-04-06T12:05:04;5.05;;;4.47;;
60018;SDS011;45870;42.528;26.740;2023-04-06T12:07:31;6.65;;;4.50;;
60018;SDS011;45870;42.528;26.740;2023-04-06T12:09:58;5.30;;;4.53;;
60018;SDS011;45870;42.528;26.740;2023-04-06T12:12:26;6.10;;;5.10;;
60018;SDS011;45870;42.528;26.740;2023-04-06T12:14:52;5.97;;;4.93;;
60018;SDS011;45870;42.528;26.740;2023-04-06T12:17:18;5.07;;;4.43;;
60018;SDS011;45870;42.528;26.740;2023-04-06T12:19:45;5.75;;;4.68;;
60018;SDS011;45870;42.528;26.740;2023-04-06T12:22:11;6.47;;;5.40;;
60018;SDS011;45870;42.528;26.740;2023-04-06T12:24:37;6.00;;;4.85;;
60018;SDS011;45870;42.528;26.740;2023-04-06T12:27:02;5.80;;;4.85;;
60018;SDS011;45870;42.528;26.740;2023-04-06T12:29:28;7.05;;;5.72;;
60018;SDS011;45870;42.528;26.740;2023-04-06T12:31:54;6.78;;;5.22;;
60018;SDS011;45870;42.528;26.740;2023-04-06T12:34:20;6.65;;;5.05;;
60018;SDS011;45870;42.528;26.740;2023-04-06T12:36:45;6.93;;;5.53;;
60018;SDS011;45870;42.528;26.740;2023-04-06T12:39:11;6.78;;;5.00;;
60018;SDS011;45870;42.528;26.740;2023-04-06T12:41:37;6.07;;;5.07;;
60018;SDS011;45870;42.528;26.740;2023-04-06T12:44:05;6.90;;;5.40;;
60018;SDS011;45870;42.528;26.740;2023-04-06T12:46:31;5.93;;;4.78;;
60018;SDS011;45870;42.528;26.740;2023-04-06T12:48:57;8.68;;;5.28;;
60018;SDS011;45870;42.528;26.740;2023-04-06T12:51:24;7.50;;;5.72;;
60018;SDS011;45870;42.528;26.740;2023-04-06T12:53:53;6.35;;;5.15;;
60018;SDS011;45870;42.528;26.740;2023-04-06T12:56:19;7.25;;;5.63;;
60018;SDS011;45870;42.528;26.740;2023-04-06T12:58:47;7.32;;;5.88;;
60018;SDS011;45870;42.528;26.740;2023-04-06T13:01:15;6.10;;;4.97;;
60018;SDS011;45870;42.528;26.740;2023-04-06T13:03:41;6.68;;;5.30;;
60018;SDS011;45870;42.528;26.740;2023-04-06T13:06:07;7.57;;;4.70;;
60018;SDS011;45870;42.528;26.740;2023-04-06T13:08:33;6.72;;;4.68;;
60018;SDS011;45870;42.528;26.740;2023-04-06T13:11:00;4.05;;;3.63;;
60018;SDS011;45870;42.528;26.740;2023-04-06T13:13:26;5.70;;;4.30;;
60018;SDS011;45870;42.528;26.740;2023-04-06T13:16:00;4.57;;;3.92;;
60018;SDS011;45870;42.528;26.740;2023-04-06T13:18:28;5.97;;;4.80;;
60018;SDS011;45870;42.528;26.740;2023-04-06T13:20:56;6.53;;;5.22;;
60018;SDS011;45870;42.528;26.740;2023-04-06T13:23:22;5.90;;;5.10;;
60018;SDS011;45870;42.528;26.740;2023-04-06T13:25:56;8.70;;;6.05;;
60018;SDS011;45870;42.528;26.740;2023-04-06T13:28:25;5.35;;;4.75;;
60018;SDS011;45870;42.528;26.740;2023-04-06T13:30:52;6.25;;;5.00;;
60018;SDS011;45870;42.528;26.740;2023-04-06T13:33:18;7.75;;;5.32;;
60018;SDS011;45870;42.528;26.740;2023-04-06T13:35:44;6.18;;;4.97;;
60018;SDS011;45870;42.528;26.740;2023-04-06T13:38:10;6.00;;;4.85;;
60018;SDS011;45870;42.528;26.740;2023-04-06T13:40:39;7.65;;;4.40;;
60018;SDS011;45870;42.528;26.740;2023-04-06T13:43:05;7.78;;;5.65;;
60018;SDS011;45870;42.528;26.740;2023-04-06T13:45:32;6.13;;;4.65;;
60018;SDS011;45870;42.528;26.740;2023-04-06T13:47:58;10.13;;;7.07;;
60018;SDS011;45870;42.528;26.740;2023-04-06T13:50:26;9.60;;;5.00;;
60018;SDS011;45870;42.528;26.740;2023-04-06T13:52:52;6.05;;;4.80;;
60018;SDS011;45870;42.528;26.740;2023-04-06T13:55:18;7.10;;;5.28;;
60018;SDS011;45870;42.528;26.740;2023-04-06T13:57:44;6.95;;;5.28;;
60018;SDS011;45870;42.528;26.740;2023-04-06T14:00:10;6.80;;;5.38;;
60018;SDS011;45870;42.528;26.740;2023-04-06T14:02:37;6.88;;;5.13;;
60018;SDS011;45870;42.528;26.740;2023-04-06T14:05:05;6.13;;;4.63;;
60018;SDS011;45870;42.528;26.740;2023-04-06T14:07:31;5.80;;;4.82;;
60018;SDS011;45870;42.528;26.740;2023-04-06T14:09:57;5.00;;;3.80;;
60018;SDS011;45870;42.528;26.740;2023-04-06T14:12:23;6.25;;;4.22;;
60018;SDS011;45870;42.528;26.740;2023-04-06T14:14:49;5.72;;;4.10;;
60018;SDS011;45870;42.528;26.740;2023-04-06T14:17:15;5.30;;;4.43;;
60018;SDS011;45870;42.528;26.740;2023-04-06T14:19:41;4.40;;;3.88;;
60018;SDS011;45870;42.528;26.740;2023-04-06T14:22:06;5.47;;;3.90;;
60018;SDS011;45870;42.528;26.740;2023-04-06T14:24:33;5.32;;;4.30;;